Aviation Digital Data Service (ADDS)

Output produced by METARs form (1910 UTC 24 April 2017)
found at http://aviationweather.gov/adds/metars/
 
KMHT 241724Z 2418/2518 10006KT P6SM SCT250 
     FM250900 06004KT P6SM SCT025 BKN050 OVC100 
     FM251300 05007KT 5SM -RA BKN025 OVC050